Time;durP1;ratioP1;P1;durP2;ratioP2;P2;SDS_P1;SDS_P2;PMS_P1;PMS_P2;Temp;Humidity;BMP_temperature;BMP_pressure;BME280_temperature;BME280_humidity;BME280_pressure;Samples;Min_cycle;Max_cycle;Signal;HPM_P1;HPM_P2
2021/05/01 00:00:07;;;;;;;;;;;;;;;17.52;66.43;100598.38;4976147;28;983;-55
2021/05/01 00:02:33;;;;;;;;;;;;;;;17.47;66.47;100606.78;4975828;28;1389;-55
2021/05/01 00:05:00;;;;;;;;;;;;;;;17.49;66.01;100604.81;4976207;28;995;-54
2021/05/01 00:07:26;;;;;;;;;;;;;;;17.49;66.69;100609.34;4975978;28;935;-55
2021/05/01 00:09:52;;;;;;;;;;;;;;;17.46;66.77;100609.59;4975775;28;1056;-55
2021/05/01 00:12:18;;;;;;;;;;;;;;;17.48;66.76;100618.31;4975170;28;1108;-54
2021/05/01 00:14:44;;;;;;;;;;;;;;;17.45;65.97;100613.25;4975729;28;1918;-55
2021/05/01 00:17:10;;;;;;;;;;;;;;;17.48;65.97;100623.66;4975714;28;1092;-55
2021/05/01 00:19:36;;;;;;;;;;;;;;;17.46;65.72;100621.13;4975988;28;1054;-55
2021/05/01 00:22:03;;;;;;;;;;;;;;;17.47;66.02;100603.28;4975996;28;1075;-55
2021/05/01 00:24:29;;;;;;;;;;;;;;;17.45;66.88;100615.91;4975749;28;1052;-55
2021/05/01 00:26:55;;;;;;;;;;;;;;;17.45;66.57;100614.09;4976079;28;1011;-55
2021/05/01 00:29:21;;;;;;;;;;;;;;;17.45;66.91;100608.75;4975698;28;1068;-55
2021/05/01 00:31:47;;;;;;;;;;;;;;;17.48;66.61;100608.47;4975886;28;992;-54
2021/05/01 00:34:13;;;;;;;;;;;;;;;17.45;65.94;100592.69;4975953;28;1055;-55
2021/05/01 00:36:39;;;;;;;;;;;;;;;17.44;66.57;100599.00;4975833;28;1907;-54
2021/05/01 00:39:06;;;;;;;;;;;;;;;17.44;66.72;100585.63;4975649;28;1055;-55
2021/05/01 00:41:32;;;;;;;;;;;;;;;17.45;66.51;100592.69;4975800;28;975;-55
2021/05/01 00:43:59;;;;;;;;;;;;;;;17.48;65.89;100608.47;4975434;28;1474;-54
2021/05/01 00:46:25;;;;;;;;;;;;;;;17.46;66.30;100607.75;4975521;28;1126;-54
2021/05/01 00:48:50;;;;;;;;;;;;;;;17.44;66.83;100596.34;4975830;28;1012;-55
2021/05/01 00:51:16;;;;;;;;;;;;;;;17.45;65.76;100600.72;4976135;28;1891;-55
2021/05/01 00:53:42;;;;;;;;;;;;;;;17.46;66.72;100605.06;4975843;28;992;-55
2021/05/01 00:56:10;;;;;;;;;;;;;;;17.44;66.50;100598.16;4975403;28;2000;-55
2021/05/01 00:58:36;;;;;;;;;;;;;;;17.46;66.76;100605.06;4975758;28;1030;-55
2021/05/01 01:03:48;;;;;;;;;;;;;;;17.43;66.09;100615.19;4971869;28;1909;-55
2021/05/01 01:06:15;;;;;;;;;;;;;;;17.47;66.04;100622.81;4975582;28;1075;-55
2021/05/01 01:08:41;;;;;;;;;;;;;;;17.44;66.55;100617.72;4975568;28;1044;-54
2021/05/01 01:11:07;;;;;;;;;;;;;;;17.44;65.98;100617.72;4975206;28;1160;-55
2021/05/01 01:13:33;;;;;;;;;;;;;;;17.44;66.58;100617.72;4975204;28;1052;-54
2021/05/01 01:16:00;;;;;;;;;;;;;;;17.44;66.05;100615.03;4975205;28;1981;-54
2021/05/01 01:18:26;;;;;;;;;;;;;;;17.44;65.88;100615.03;4975537;28;1008;-55
2021/05/01 01:20:52;;;;;;;;;;;;;;;17.44;65.90;100615.03;4975135;28;1056;-55
2021/05/01 01:23:18;;;;;;;;;;;;;;;17.46;66.27;100618.44;4975672;28;1061;-55
2021/05/01 01:25:45;;;;;;;;;;;;;;;17.45;66.12;100614.09;4978959;28;1049;-55
2021/05/01 01:28:11;;;;;;;;;;;;;;;17.45;67.05;100587.34;4978529;28;1111;-55
2021/05/01 01:30:37;;;;;;;;;;;;;;;17.41;66.30;100596.63;4978832;28;1071;-55
2021/05/01 01:33:04;;;;;;;;;;;;;;;17.45;65.94;100603.38;4978764;28;987;-55
2021/05/01 01:35:30;;;;;;;;;;;;;;;17.43;66.56;100604.50;4978469;28;1906;-55
2021/05/01 01:37:57;;;;;;;;;;;;;;;17.43;66.65;100600.00;4978745;28;1007;-55
2021/05/01 01:40:24;;;;;;;;;;;;;;;17.40;66.50;100600.25;4978346;28;1095;-55
2021/05/01 01:42:50;;;;;;;;;;;;;;;17.41;66.37;100590.44;4978342;28;1036;-55
2021/05/01 01:45:17;;;;;;;;;;;;;;;17.41;65.75;100599.28;4978531;28;1003;-55
2021/05/01 01:47:43;;;;;;;;;;;;;;;17.43;66.21;100599.16;4979043;28;1879;-55
2021/05/01 01:50:10;;;;;;;;;;;;;;;17.39;66.04;100598.56;4978451;28;1086;-55
2021/05/01 01:52:37;;;;;;;;;;;;;;;17.40;66.68;100586.03;4978534;28;1035;-55
2021/05/01 01:55:03;;;;;;;;;;;;;;;17.40;66.13;100584.22;4978293;28;1906;-55
2021/05/01 01:57:30;;;;;;;;;;;;;;;17.40;65.70;100592.22;4978303;28;1032;-55
2021/05/01 01:59:56;;;;;;;;;;;;;;;17.39;65.97;100598.56;4978230;28;1081;-55
2021/05/01 02:02:22;;;;;;;;;;;;;;;17.39;65.64;100600.38;4989874;23;2007;-45
2021/05/01 02:04:48;;;;;;;;;;;;;;;17.40;66.81;100594.06;4976689;28;1073;-44
2021/05/01 02:07:14;;;;;;;;;;;;;;;17.44;65.92;100595.50;4976981;28;1114;-43
2021/05/01 02:09:40;;;;;;;;;;;;;;;17.40;66.77;100596.72;4976580;28;1103;-44
2021/05/01 02:12:06;;;;;;;;;;;;;;;17.41;66.12;100596.63;5020900;23;3712;-55
2021/05/01 02:14:33;;;;;;;;;;;;;;;17.40;66.40;100597.56;5016739;28;1051;-54
2021/05/01 02:16:59;;;;;;;;;;;;;;;17.39;66.94;100593.22;5016982;28;1906;-55
2021/05/01 02:19:25;;;;;;;;;;;;;;;17.37;66.24;100597.84;5017440;28;1893;-55
2021/05/01 02:21:51;;;;;;;;;;;;;;;17.39;65.93;100601.25;5017576;28;1898;-55
2021/05/01 02:24:17;;;;;;;;;;;;;;;17.38;65.86;100596.84;5016949;28;1073;-55
2021/05/01 02:26:43;;;;;;;;;;;;;;;17.39;66.67;100609.25;5016878;28;1058;-55
2021/05/01 02:29:09;;;;;;;;;;;;;;;17.39;65.79;100609.25;5016531;28;1059;-54
2021/05/01 02:31:36;;;;;;;;;;;;;;;17.42;66.22;100621.50;5016831;28;1072;-54
2021/05/01 02:34:02;;;;;;;;;;;;;;;17.37;66.83;100608.53;5015996;28;1027;-55
2021/05/01 02:36:28;;;;;;;;;;;;;;;17.39;66.00;100627.09;5016286;28;1906;-55
2021/05/01 02:38:54;;;;;;;;;;;;;;;17.40;65.65;100632.31;5016686;28;995;-55
2021/05/01 02:41:22;;;;;;;;;;;;;;;17.40;66.47;100626.13;5016301;28;1063;-55
2021/05/01 02:43:48;;;;;;;;;;;;;;;17.38;65.73;100623.59;5016514;28;1062;-55
2021/05/01 02:46:14;;;;;;;;;;;;;;;17.38;66.50;100628.09;5016474;28;986;-55
2021/05/01 02:48:41;;;;;;;;;;;;;;;17.37;65.96;100631.72;5016522;28;970;-55
2021/05/01 02:51:07;;;;;;;;;;;;;;;17.39;65.92;100630.63;5016411;28;1064;-55
2021/05/01 02:53:33;;;;;;;;;;;;;;;17.37;66.06;100621.91;5016384;28;1028;-55
2021/05/01 02:55:59;;;;;;;;;;;;;;;17.39;66.24;100621.75;5016289;28;1906;-55
2021/05/01 02:58:25;;;;;;;;;;;;;;;17.39;65.85;100630.63;5016322;28;1061;-55
2021/05/01 03:00:53;;;;;;;;;;;;;;;17.37;66.85;100611.22;5016922;28;1420;-55
2021/05/01 03:03:19;;;;;;;;;;;;;;;17.39;66.10;100613.72;5035994;28;1085;-55
2021/05/01 03:05:45;;;;;;;;;;;;;;;17.37;65.70;100611.22;5035513;28;1125;-55
2021/05/01 03:08:11;;;;;;;;;;;;;;;17.37;66.91;100615.69;5035610;28;1123;-54
2021/05/01 03:10:37;;;;;;;;;;;;;;;17.37;65.96;100615.69;5035551;28;1119;-55
2021/05/01 03:13:03;;;;;;;;;;;;;;;17.37;65.47;100605.88;5035445;28;1048;-55
2021/05/01 03:15:29;;;;;;;;;;;;;;;17.36;66.58;100609.50;5035688;28;1971;-54
2021/05/01 03:17:57;;;;;;;;;;;;;;;17.35;65.92;100622.97;5035374;28;1087;-54
2021/05/01 03:20:23;;;;;;;;;;;;;;;17.35;65.99;100623.84;5035386;28;1118;-55
2021/05/01 03:22:50;;;;;;;;;;;;;;;17.34;66.44;100610.63;5035799;28;1149;-54
2021/05/01 03:25:17;;;;;;;;;;;;;;;17.36;66.64;100620.19;5035636;28;1022;-55
2021/05/01 03:27:43;;;;;;;;;;;;;;;17.34;66.43;100622.16;5035206;28;1134;-55
2021/05/01 03:30:10;;;;;;;;;;;;;;;17.36;65.64;100630.03;5035387;28;982;-54
2021/05/01 03:32:37;;;;;;;;;;;;;;;17.37;66.00;100629.06;5035425;28;1047;-55
2021/05/01 03:35:03;;;;;;;;;;;;;;;17.34;66.08;100627.50;5035262;28;1906;-54
2021/05/01 03:37:29;;;;;;;;;;;;;;;17.35;66.24;100642.56;5035365;28;975;-55
2021/05/01 03:39:56;;;;;;;;;;;;;;;17.38;66.08;100644.97;5035070;28;1982;-54
2021/05/01 03:42:22;;;;;;;;;;;;;;;17.36;65.96;100648.75;5034990;28;1059;-55
2021/05/01 03:44:48;;;;;;;;;;;;;;;17.37;65.95;100642.41;5035250;28;1093;-55
2021/05/01 03:47:14;;;;;;;;;;;;;;;17.39;65.58;100656.50;5034090;28;1077;-55
2021/05/01 03:49:40;;;;;;;;;;;;;;;17.37;66.24;100661.13;5034961;28;1070;-55
2021/05/01 03:52:06;;;;;;;;;;;;;;;17.38;66.43;100655.66;5035231;28;990;-55
2021/05/01 03:54:32;;;;;;;;;;;;;;;17.37;65.61;100662.00;5034817;28;1060;-54
2021/05/01 03:56:59;;;;;;;;;;;;;;;17.39;66.25;100653.81;5035008;28;1906;-55
2021/05/01 03:59:25;;;;;;;;;;;;;;;17.38;65.95;100650.31;5035059;28;1059;-55
2021/05/01 04:01:51;;;;;;;;;;;;;;;17.39;66.63;100646.69;5035003;28;1484;-55
2021/05/01 04:04:19;;;;;;;;;;;;;;;17.39;66.42;100649.34;5034960;28;994;-55
2021/05/01 04:06:45;;;;;;;;;;;;;;;17.41;66.35;100660.75;5034971;28;1073;-56
2021/05/01 04:09:11;;;;;;;;;;;;;;;17.41;66.44;100651.91;5034964;28;1022;-54
2021/05/01 04:11:37;;;;;;;;;;;;;;;17.47;66.00;100664.75;5034490;28;1327;-55
2021/05/01 04:14:04;;;;;;;;;;;;;;;17.50;65.82;100670.66;5034930;28;1068;-55
2021/05/01 04:16:29;;;;;;;;;;;;;;;17.51;65.47;100666.19;5034737;28;1980;-55
2021/05/01 04:18:56;;;;;;;;;;;;;;;17.50;65.32;100673.34;5034553;28;1294;-54
2021/05/01 04:21:22;;;;;;;;;;;;;;;17.58;65.32;100674.53;5034901;28;1067;-55
2021/05/01 04:23:48;;;;;;;;;;;;;;;17.68;65.76;100675.47;5034829;28;949;-54
2021/05/01 04:26:14;;;;;;;;;;;;;;;17.64;65.74;100679.38;5034822;28;1003;-54
2021/05/01 04:28:40;;;;;;;;;;;;;;;17.62;64.97;100684.00;5034430;28;1455;-55
2021/05/01 04:31:07;;;;;;;;;;;;;;;17.58;65.48;100680.72;5034713;28;1039;-54
2021/05/01 04:33:33;;;;;;;;;;;;;;;17.59;65.86;100687.78;5034396;28;1051;-54
2021/05/01 04:35:59;;;;;;;;;;;;;;;17.60;65.09;100697.50;5034690;28;1981;-54
2021/05/01 04:38:26;;;;;;;;;;;;;;;17.65;65.23;100689.94;5034715;28;987;-55
2021/05/01 04:40:52;;;;;;;;;;;;;;;17.61;66.03;100682.31;5034327;28;1178;-55
2021/05/01 04:43:22;;;;;;;;;;;;;;;17.53;65.74;100700.81;5034370;28;1035;-55
2021/05/01 04:45:48;;;;;;;;;;;;;;;17.48;66.00;100677.13;5034284;28;1043;-54
2021/05/01 04:48:15;;;;;;;;;;;;;;;17.46;66.08;100663.88;5034652;28;1068;-55
2021/05/01 04:50:41;;;;;;;;;;;;;;;17.47;66.37;100678.97;5034564;28;1092;-55
2021/05/01 04:53:07;;;;;;;;;;;;;;;17.47;65.75;100675.44;5034211;28;1300;-55
2021/05/01 04:55:33;;;;;;;;;;;;;;;17.48;66.38;100655.75;5034421;28;1906;-55
2021/05/01 04:57:59;;;;;;;;;;;;;;;17.49;65.49;100662.81;5036159;28;1002;-55
2021/05/01 05:00:25;;;;;;;;;;;;;;;17.48;65.56;100651.25;5038007;28;1122;-55
2021/05/01 05:02:51;;;;;;;;;;;;;;;17.49;65.45;100647.59;5037690;28;1447;-55
2021/05/01 05:05:18;;;;;;;;;;;;;;;17.48;66.41;100653.91;5038139;28;1085;-54
2021/05/01 05:07:44;;;;;;;;;;;;;;;17.50;66.56;100654.63;5037242;28;1471;-55
2021/05/01 05:10:12;;;;;;;;;;;;;;;17.52;65.83;100659.00;5037693;28;1604;-55
2021/05/01 05:12:38;;;;;;;;;;;;;;;17.53;65.13;100671.38;5037247;28;1097;-55
2021/05/01 05:15:05;;;;;;;;;;;;;;;17.52;66.19;100662.53;5027526;28;1983;-55
2021/05/01 05:17:32;;;;;;;;;;;;;;;17.49;65.98;100660.97;5021242;28;1400;-55
2021/05/01 05:19:58;;;;;;;;;;;;;;;17.51;65.83;100666.19;5017862;28;1063;-55
2021/05/01 05:22:24;;;;;;;;;;;;;;;17.50;65.17;100672.50;5018137;28;1062;-55
2021/05/01 05:24:50;;;;;;;;;;;;;;;17.54;64.99;100663.25;5018087;28;1053;-55
2021/05/01 05:27:16;;;;;;;;;;;;;;;17.49;66.31;100669.00;5018080;28;1881;-55
2021/05/01 05:29:49;;;;;;;;;;;;;;;17.52;65.13;100667.03;5017825;28;982;-54
2021/05/01 05:32:15;;;;;;;;;;;;;;;17.52;66.26;100665.19;5017841;28;1007;-55
2021/05/01 05:34:41;;;;;;;;;;;;;;;17.56;64.84;100668.47;5017508;28;1073;-55
2021/05/01 05:37:07;;;;;;;;;;;;;;;17.56;64.83;100679.16;5017727;28;1981;-55
2021/05/01 05:39:34;;;;;;;;;;;;;;;17.54;65.93;100663.25;5018094;28;1877;-55
2021/05/01 05:42:00;;;;;;;;;;;;;;;17.53;65.47;100658.03;5017395;28;1062;-55
2021/05/01 05:44:26;;;;;;;;;;;;;;;17.54;65.01;100659.75;5017662;28;994;-55
2021/05/01 05:46:52;;;;;;;;;;;;;;;17.55;65.34;100656.06;5017380;28;986;-55
2021/05/01 05:49:18;;;;;;;;;;;;;;;17.55;64.62;100656.94;5017593;28;1073;-55
2021/05/01 05:51:44;;;;;;;;;;;;;;;17.57;64.87;100662.16;5017233;28;1133;-55
2021/05/01 05:54:10;;;;;;;;;;;;;;;17.57;64.93;100648.81;5017549;28;994;-55
2021/05/01 05:56:37;;;;;;;;;;;;;;;17.56;64.75;100653.28;5017134;28;1902;-55
2021/05/01 05:59:03;;;;;;;;;;;;;;;17.60;64.93;100653.88;5017553;28;1254;-55
2021/05/01 06:01:31;;;;;;;;;;;;;;;17.60;65.25;100654.72;5030680;28;1566;-54
2021/05/01 06:03:58;;;;;;;;;;;;;;;17.59;65.27;100646.84;5036772;28;1114;-55
2021/05/01 06:06:27;;;;;;;;;;;;;;;17.61;64.84;100647.56;5037063;28;1256;-55
2021/05/01 06:08:53;;;;;;;;;;;;;;;17.61;64.61;100629.69;5035976;28;1024;-55
2021/05/01 06:11:20;;;;;;;;;;;;;;;17.61;64.73;100644.88;5036553;28;1117;-54
2021/05/01 06:13:47;;;;;;;;;;;;;;;17.60;65.33;100627.97;5036253;28;1290;-55
2021/05/01 06:16:13;;;;;;;;;;;;;;;17.60;65.15;100643.19;5036525;28;1910;-55
2021/05/01 06:18:41;;;;;;;;;;;;;;;17.64;65.38;100644.59;5036813;28;975;-55
2021/05/01 06:21:09;;;;;;;;;;;;;;;17.63;64.83;100661.66;5036606;28;995;-55
2021/05/01 06:23:37;;;;;;;;;;;;;;;17.66;65.24;100669.41;5036453;28;1055;-55
2021/05/01 06:26:03;;;;;;;;;;;;;;;17.69;64.48;100690.53;5036438;28;1071;-55
2021/05/01 06:28:29;;;;;;;;;;;;;;;17.66;65.05;100672.06;5035951;28;1554;-55
2021/05/01 06:30:59;;;;;;;;;;;;;;;17.69;65.30;100679.84;5036501;28;1007;-55
2021/05/01 06:33:25;;;;;;;;;;;;;;;17.68;65.06;100689.69;5036587;28;969;-55
2021/05/01 06:35:51;;;;;;;;;;;;;;;17.68;64.95;100694.19;5036409;28;1965;-55
2021/05/01 06:38:17;;;;;;;;;;;;;;;17.69;65.05;100685.19;5036461;28;999;-55
2021/05/01 06:40:45;;;;;;;;;;;;;;;17.73;64.90;100683.97;5036409;28;979;-55
2021/05/01 06:43:14;;;;;;;;;;;;;;;17.71;64.92;100677.91;5036043;28;993;-55
2021/05/01 06:45:41;;;;;;;;;;;;;;;17.72;64.76;100674.22;5036376;28;994;-55
2021/05/01 06:48:09;;;;;;;;;;;;;;;17.72;64.87;100682.25;5036288;28;1053;-55
2021/05/01 06:50:35;;;;;;;;;;;;;;;17.76;64.75;100674.81;5035872;28;971;-55
2021/05/01 06:53:02;;;;;;;;;;;;;;;17.78;64.53;100673.69;5036146;28;991;-55
2021/05/01 06:55:28;;;;;;;;;;;;;;;17.79;64.22;100671.91;5036089;28;1977;-55
2021/05/01 06:57:56;;;;;;;;;;;;;;;17.78;64.19;100673.69;5035771;28;1066;-55
2021/05/01 07:00:23;;;;;;;;;;;;;;;17.81;64.66;100678.81;5035658;28;1055;-55
2021/05/01 07:02:49;;;;;;;;;;;;;;;17.80;64.95;100669.06;5035601;28;1381;-55
2021/05/01 07:05:17;;;;;;;;;;;;;;;17.80;65.22;100681.59;5035656;28;1227;-54
2021/05/01 07:07:44;;;;;;;;;;;;;;;17.79;64.92;100663.88;5035593;28;1067;-55
2021/05/01 07:10:13;;;;;;;;;;;;;;;17.83;64.89;100670.66;5035892;28;1019;-55
2021/05/01 07:12:39;;;;;;;;;;;;;;;17.80;64.07;100682.44;5035753;28;975;-55
2021/05/01 07:15:06;;;;;;;;;;;;;;;17.80;64.98;100685.13;5035466;28;1078;-55
2021/05/01 07:17:32;;;;;;;;;;;;;;;17.82;64.21;100680.50;5035273;28;2013;-55
2021/05/01 07:19:59;;;;;;;;;;;;;;;17.85;65.03;100687.47;5035526;28;1007;-55
2021/05/01 07:22:26;;;;;;;;;;;;;;;17.84;64.97;100693.78;5035370;28;1123;-55
2021/05/01 07:24:52;;;;;;;;;;;;;;;17.83;64.87;100684.03;5035598;28;1027;-55
2021/05/01 07:27:18;;;;;;;;;;;;;;;17.87;64.77;100683.66;5035328;28;1879;-55
2021/05/01 07:29:46;;;;;;;;;;;;;;;17.89;64.54;100679.03;5035377;28;1074;-55
2021/05/01 07:32:15;;;;;;;;;;;;;;;17.88;64.82;100674.66;5035443;28;1057;-55
2021/05/01 07:34:49;;;;;;;;;;;;;;;17.94;64.60;100683.97;5035093;28;1056;-55
2021/05/01 07:37:17;;;;;;;;;;;;;;;17.93;64.14;100684.13;5034994;28;1973;-55
2021/05/01 07:39:47;;;;;;;;;;;;;;;17.92;64.74;100669.06;5035306;28;983;-55
2021/05/01 07:42:13;;;;;;;;;;;;;;;17.93;63.95;100678.78;5035304;28;983;-55
2021/05/01 07:44:40;;;;;;;;;;;;;;;17.92;64.49;100669.06;5035327;28;1058;-55
2021/05/01 07:47:06;;;;;;;;;;;;;;;17.93;64.91;100671.59;5035233;28;1062;-55
2021/05/01 07:49:32;;;;;;;;;;;;;;;17.95;64.86;100676.84;5035162;28;1082;-54
2021/05/01 07:52:00;;;;;;;;;;;;;;;17.92;64.93;100674.41;5035173;28;999;-55
2021/05/01 07:54:26;;;;;;;;;;;;;;;17.94;64.40;100683.97;5032157;28;1208;-55
2021/05/01 07:56:53;;;;;;;;;;;;;;;17.96;64.41;100670.47;5034797;28;1975;-55
2021/05/01 07:59:19;;;;;;;;;;;;;;;17.94;64.16;100683.16;5031338;28;1327;-55
2021/05/01 08:01:45;;;;;;;;;;;;;;;17.98;64.19;100679.22;5015251;28;1496;-55
2021/05/01 08:04:11;;;;;;;;;;;;;;;17.96;64.44;100676.66;5015334;28;1011;-55
2021/05/01 08:06:38;;;;;;;;;;;;;;;17.99;64.31;100687.13;5014917;28;1032;-55
2021/05/01 08:09:04;;;;;;;;;;;;;;;18.00;64.66;100683.47;5014997;28;1071;-55
2021/05/01 08:11:30;;;;;;;;;;;;;;;17.97;64.57;100683.75;5014897;28;1129;-55
2021/05/01 08:13:57;;;;;;;;;;;;;;;17.98;64.76;100668.53;5014888;28;1071;-55
2021/05/01 08:16:23;;;;;;;;;;;;;;;17.98;64.83;100684.56;5014846;28;1981;-55
2021/05/01 08:18:51;;;;;;;;;;;;;;;18.00;64.51;100666.56;5015102;28;1020;-55
2021/05/01 08:21:17;;;;;;;;;;;;;;;17.98;64.93;100674.72;5015108;28;1077;-56
2021/05/01 08:23:43;;;;;;;;;;;;;;;18.00;64.36;100678.09;5014782;28;1071;-55
2021/05/01 08:26:09;;;;;;;;;;;;;;;17.98;64.58;100679.22;5015047;28;1171;-55
2021/05/01 08:28:35;;;;;;;;;;;;;;;18.02;64.24;100673.47;5015071;28;1073;-55
2021/05/01 08:31:02;;;;;;;;;;;;;;;17.98;64.90;100679.22;5014992;28;1062;-55
2021/05/01 08:33:28;;;;;;;;;;;;;;;17.97;64.60;100682.91;5018414;28;1275;-55
2021/05/01 08:35:55;;;;;;;;;;;;;;;17.98;64.78;100673.88;5018890;28;1910;-55
2021/05/01 08:38:21;;;;;;;;;;;;;;;17.97;64.77;100674.88;5018662;28;1023;-55
2021/05/01 08:40:48;;;;;;;;;;;;;;;17.99;64.74;100671.06;5018861;28;986;-55
2021/05/01 08:43:14;;;;;;;;;;;;;;;17.98;64.34;100663.16;5018511;28;1897;-54
2021/05/01 08:45:41;;;;;;;;;;;;;;;17.99;65.07;100667.56;5018531;28;1060;-55
2021/05/01 08:48:08;;;;;;;;;;;;;;;17.99;64.79;100678.25;5018755;28;995;-55
2021/05/01 08:50:39;;;;;;;;;;;;;;;18.01;64.69;100668.28;5018737;28;974;-54
2021/05/01 08:53:07;;;;;;;;;;;;;;;17.96;65.03;100660.63;5018638;28;1061;-56
2021/05/01 08:55:35;;;;;;;;;;;;;;;18.00;64.73;100662.06;5018601;28;1909;-55
2021/05/01 08:58:01;;;;;;;;;;;;;;;17.99;64.63;100651.50;5018594;28;1888;-55
2021/05/01 09:00:28;;;;;;;;;;;;;;;18.00;64.81;100653.19;5018580;28;1065;-55
2021/05/01 09:02:54;;;;;;;;;;;;;;;17.99;64.65;100654.19;5018437;28;1416;-55
2021/05/01 09:05:23;;;;;;;;;;;;;;;17.99;64.95;100651.50;5027135;28;1353;-55
2021/05/01 09:07:50;;;;;;;;;;;;;;;17.99;64.59;100659.53;5032495;28;1247;-55
2021/05/01 09:10:16;;;;;;;;;;;;;;;17.99;64.99;100651.50;5034250;28;1327;-54
2021/05/01 09:12:43;;;;;;;;;;;;;;;18.01;64.91;100657.56;5023164;28;1227;-55
2021/05/01 09:15:12;;;;;;;;;;;;;;;18.02;64.72;100654.75;5021932;28;1338;-55
2021/05/01 09:17:38;;;;;;;;;;;;;;;18.02;64.55;100652.06;5018074;28;1902;-55
2021/05/01 09:20:05;;;;;;;;;;;;;;;18.04;64.96;100651.94;5018129;28;990;-55
2021/05/01 09:22:32;;;;;;;;;;;;;;;18.01;64.94;100647.72;5017823;28;1036;-56
2021/05/01 09:25:05;;;;;;;;;;;;;;;18.01;64.83;100652.22;5018095;28;1061;-55
2021/05/01 09:27:31;;;;;;;;;;;;;;;18.04;64.45;100662.66;5019319;28;1283;-55
2021/05/01 09:30:10;;;;;;;;;;;;;;;18.03;64.48;100652.94;5017923;28;1027;-55
2021/05/01 09:32:37;;;;;;;;;;;;;;;18.00;65.00;100646.00;5018031;28;1888;-55
2021/05/01 09:35:04;;;;;;;;;;;;;;;18.00;64.49;100662.06;5017538;28;1118;-55
2021/05/01 09:37:32;;;;;;;;;;;;;;;18.01;65.03;100658.41;5017835;28;1902;-55
2021/05/01 09:39:59;;;;;;;;;;;;;;;18.03;65.00;100658.28;5017498;28;1085;-55
2021/05/01 09:42:27;;;;;;;;;;;;;;;18.03;65.05;100661.81;5031231;28;1319;-55
2021/05/01 09:45:06;;;;;;;;;;;;;;;18.02;64.48;100657.41;5036209;28;1073;-55
2021/05/01 09:47:33;;;;;;;;;;;;;;;18.03;64.96;100660.97;5037489;28;1054;-55
2021/05/01 09:49:59;;;;;;;;;;;;;;;18.02;64.72;100652.06;5037119;28;1056;-54
2021/05/01 09:52:25;;;;;;;;;;;;;;;18.06;64.82;100649.97;5037397;28;1015;-55
2021/05/01 09:54:52;;;;;;;;;;;;;;;18.05;65.16;100654.50;5037213;28;1046;-55
2021/05/01 09:57:19;;;;;;;;;;;;;;;18.03;64.46;100639.56;5037211;28;1910;-56
2021/05/01 09:59:46;;;;;;;;;;;;;;;18.03;64.79;100635.03;5037323;28;1011;-55
2021/05/01 10:02:13;;;;;;;;;;;;;;;18.04;64.78;100630.53;5034082;28;1444;-55
2021/05/01 10:04:40;;;;;;;;;;;;;;;18.04;65.05;100635.88;5020872;28;1271;-55
2021/05/01 10:07:06;;;;;;;;;;;;;;;18.02;65.07;100632.50;5017220;28;974;-55
2021/05/01 10:09:33;;;;;;;;;;;;;;;18.03;64.98;100634.22;5016973;28;1118;-55
2021/05/01 10:12:04;;;;;;;;;;;;;;;18.04;64.97;100628.69;5016752;28;1132;-55
2021/05/01 10:14:40;;;;;;;;;;;;;;;18.04;65.03;100635.88;5017183;28;1003;-55
2021/05/01 10:17:06;;;;;;;;;;;;;;;18.04;64.77;100631.38;5016681;28;1906;-55
2021/05/01 10:19:45;;;;;;;;;;;;;;;18.03;64.79;100629.69;5017150;28;1039;-55
2021/05/01 10:22:22;;;;;;;;;;;;;;;18.05;64.72;100635.75;5017082;28;1066;-55
2021/05/01 10:24:48;;;;;;;;;;;;;;;18.06;64.58;100623.22;5017295;28;1624;-55
2021/05/01 10:27:16;;;;;;;;;;;;;;;18.05;65.11;100626.91;5036713;28;979;-55
2021/05/01 10:29:43;;;;;;;;;;;;;;;18.06;64.92;100617.88;5036204;28;1063;-55
2021/05/01 10:32:14;;;;;;;;;;;;;;;18.05;65.15;100608.16;5035217;28;1088;-55
2021/05/01 10:34:42;;;;;;;;;;;;;;;18.05;64.79;100618.88;5035014;28;1295;-55
2021/05/01 10:37:09;;;;;;;;;;;;;;;18.07;64.78;100624.94;5026289;28;1989;-55
2021/05/01 10:39:42;;;;;;;;;;;;;;;18.05;65.02;100618.88;5030761;28;1389;-55
2021/05/01 10:42:12;;;;;;;;;;;;;;;18.07;65.08;100619.59;5036328;28;1061;-55
2021/05/01 10:44:39;;;;;;;;;;;;;;;18.06;64.87;100618.75;5036069;28;1071;-55
2021/05/01 10:47:10;;;;;;;;;;;;;;;18.06;64.59;100607.16;5032929;28;1235;-55
2021/05/01 10:49:36;;;;;;;;;;;;;;;18.07;65.04;100604.38;5032871;28;1244;-55
2021/05/01 10:52:12;;;;;;;;;;;;;;;18.07;65.00;100608.88;5035989;28;1059;-55
2021/05/01 10:54:38;;;;;;;;;;;;;;;18.07;64.55;100604.38;5036140;28;1018;-55
2021/05/01 10:57:12;;;;;;;;;;;;;;;18.07;64.72;100600.84;5035794;28;1975;-54
2021/05/01 10:59:39;;;;;;;;;;;;;;;18.08;64.77;100597.19;5036105;28;963;-55
2021/05/01 11:02:13;;;;;;;;;;;;;;;18.06;65.01;100585.75;5031769;28;1412;-56
2021/05/01 11:04:48;;;;;;;;;;;;;;;18.05;65.25;100598.31;5035934;28;970;-55
2021/05/01 11:07:18;;;;;;;;;;;;;;;18.04;65.08;100582.38;5034119;28;1518;-55
2021/05/01 11:09:45;;;;;;;;;;;;;;;18.05;65.27;100576.06;5033007;28;988;-55
2021/05/01 11:12:13;;;;;;;;;;;;;;;18.08;64.81;100565.06;5035302;28;1122;-55
2021/05/01 11:14:40;;;;;;;;;;;;;;;18.07;65.04;100576.78;5035818;28;1070;-55
2021/05/01 11:17:11;;;;;;;;;;;;;;;18.08;65.01;100565.06;5035368;28;1981;-55
2021/05/01 11:19:42;;;;;;;;;;;;;;;18.09;64.65;100561.44;5034952;28;1275;-54
2021/05/01 11:22:10;;;;;;;;;;;;;;;18.09;64.71;100564.09;5035748;28;995;-55
2021/05/01 11:24:36;;;;;;;;;;;;;;;18.09;64.64;100554.22;5035680;28;991;-55
2021/05/01 11:27:02;;;;;;;;;;;;;;;18.09;64.90;100548.88;5035641;28;1025;-55
2021/05/01 11:29:28;;;;;;;;;;;;;;;18.07;64.77;100550.00;5035367;28;1069;-55
2021/05/01 11:31:55;;;;;;;;;;;;;;;18.10;64.98;100539.00;5031846;28;1573;-55
2021/05/01 11:34:21;;;;;;;;;;;;;;;18.08;65.18;100540.97;5033718;28;1570;-54
2021/05/01 11:36:50;;;;;;;;;;;;;;;18.10;65.08;100533.66;5034912;28;1906;-55
2021/05/01 11:39:16;;;;;;;;;;;;;;;18.08;65.00;100532.94;5035393;28;1073;-55
2021/05/01 11:41:43;;;;;;;;;;;;;;;18.07;64.64;100525.94;5035295;28;1065;-55
2021/05/01 11:44:10;;;;;;;;;;;;;;;18.11;64.85;100522.00;5035328;28;1007;-55
2021/05/01 11:46:37;;;;;;;;;;;;;;;18.10;64.60;100517.59;5035214;28;979;-55
2021/05/01 11:49:05;;;;;;;;;;;;;;;18.13;65.02;100517.34;5035196;28;991;-55
2021/05/01 11:51:43;;;;;;;;;;;;;;;18.12;64.54;100510.28;5035249;28;1106;-55
2021/05/01 11:54:18;;;;;;;;;;;;;;;18.12;64.74;100510.28;5035137;28;980;-55
2021/05/01 11:56:51;;;;;;;;;;;;;;;18.14;65.22;100515.50;5034789;28;1906;-55
2021/05/01 11:59:17;;;;;;;;;;;;;;;18.15;64.71;100520.75;5034788;28;1088;-55
2021/05/01 12:01:52;;;;;;;;;;;;;;;18.14;64.72;100504.81;5034981;28;1415;-55
2021/05/01 12:04:20;;;;;;;;;;;;;;;18.15;64.64;100502.00;5034744;28;1207;-54
2021/05/01 12:06:53;;;;;;;;;;;;;;;18.17;64.55;100513.41;5034361;28;1058;-55
2021/05/01 12:09:20;;;;;;;;;;;;;;;18.16;64.96;100509.03;5034923;28;987;-55
2021/05/01 12:11:47;;;;;;;;;;;;;;;18.16;64.69;100503.69;5034637;28;1087;-55
2021/05/01 12:14:13;;;;;;;;;;;;;;;18.15;64.82;100504.69;5034911;28;987;-55
2021/05/01 12:16:40;;;;;;;;;;;;;;;18.13;64.84;100501.28;5034861;28;1906;-55
2021/05/01 12:19:06;;;;;;;;;;;;;;;18.10;65.00;100496.19;5034502;28;1055;-55
2021/05/01 12:21:40;;;;;;;;;;;;;;;18.13;64.96;100505.81;5034894;28;968;-56
2021/05/01 12:24:20;;;;;;;;;;;;;;;18.13;64.84;100497.78;5034524;28;1063;-55
2021/05/01 12:26:46;;;;;;;;;;;;;;;18.14;65.16;100497.63;5034826;28;1068;-56
2021/05/01 12:29:31;;;;;;;;;;;;;;;18.15;64.85;100493.97;5034495;28;1118;-55
2021/05/01 12:32:01;;;;;;;;;;;;;;;18.12;64.47;100483.53;5034507;28;1047;-55
2021/05/01 12:35:00;;;;;;;;;;;;;;;18.15;64.74;100466.38;5034638;28;1015;-55
2021/05/01 12:37:28;;;;;;;;;;;;;;;18.17;65.08;100462.56;4974112;28;1906;-55
2021/05/01 12:40:01;;;;;;;;;;;;;;;18.17;64.76;100459.91;4974158;28;1036;-55
2021/05/01 12:42:28;;;;;;;;;;;;;;;18.14;64.64;100464.66;5003503;28;1073;-54
2021/05/01 12:44:54;;;;;;;;;;;;;;;18.15;64.95;100445.81;5034690;28;1050;-55
2021/05/01 12:47:39;;;;;;;;;;;;;;;18.13;65.11;100444.25;5034179;28;1118;-55
2021/05/01 12:50:14;;;;;;;;;;;;;;;18.13;64.89;100453.13;5034333;28;1059;-55